sensor_id;sensor_type;location;lat;lon;timestamp;pressure;altitude;pressure_sealevel;temperature;humidity
5691;BME280;2870;42.680;23.364;2023-02-26T00:02:08;93979.47;;;15.08;44.07
5691;BME280;2870;42.680;23.364;2023-02-26T00:04:35;93993.75;;;14.98;44.19
5691;BME280;2870;42.680;23.364;2023-02-26T00:07:02;93997.69;;;14.93;44.51
5691;BME280;2870;42.680;23.364;2023-02-26T00:09:31;93970.91;;;15.06;43.34
5691;BME280;2870;42.680;23.364;2023-02-26T00:11:58;93992.03;;;15.05;44.03
5691;BME280;2870;42.680;23.364;2023-02-26T00:14:26;93980.75;;;14.93;44.19
5691;BME280;2870;42.680;23.364;2023-02-26T00:17:13;93985.78;;;14.95;43.83
5691;BME280;2870;42.680;23.364;2023-02-26T00:19:45;93969.56;;;14.95;43.78
5691;BME280;2870;42.680;23.364;2023-02-26T00:22:12;93976.09;;;14.98;43.95
5691;BME280;2870;42.680;23.364;2023-02-26T00:24:39;93963.34;;;14.85;43.65
5691;BME280;2870;42.680;23.364;2023-02-26T00:27:06;93972.88;;;14.92;43.66
5691;BME280;2870;42.680;23.364;2023-02-26T00:29:34;93982.50;;;14.87;44.10
5691;BME280;2870;42.680;23.364;2023-02-26T00:32:03;93973.81;;;14.71;44.40
5691;BME280;2870;42.680;23.364;2023-02-26T00:34:30;93976.47;;;14.69;44.77
5691;BME280;2870;42.680;23.364;2023-02-26T00:37:08;93977.59;;;14.75;44.79
5691;BME280;2870;42.680;23.364;2023-02-26T00:39:46;93961.63;;;14.68;44.37
5691;BME280;2870;42.680;23.364;2023-02-26T00:42:16;93964.59;;;14.70;44.77
5691;BME280;2870;42.680;23.364;2023-02-26T00:44:44;93955.78;;;14.64;44.52
5691;BME280;2870;42.680;23.364;2023-02-26T00:47:16;93948.41;;;14.59;44.87
5691;BME280;2870;42.680;23.364;2023-02-26T00:49:55;93953.91;;;14.69;44.74
5691;BME280;2870;42.680;23.364;2023-02-26T00:52:32;93954.94;;;14.50;45.04
5691;BME280;2870;42.680;23.364;2023-02-26T00:55:02;93941.69;;;14.52;45.26
5691;BME280;2870;42.680;23.364;2023-02-26T00:57:29;93943.72;;;14.40;45.55
5691;BME280;2870;42.680;23.364;2023-02-26T00:59:56;93940.91;;;14.40;45.75
5691;BME280;2870;42.680;23.364;2023-02-26T01:02:26;93948.41;;;14.36;45.72
5691;BME280;2870;42.680;23.364;2023-02-26T01:04:53;93939.97;;;14.36;45.75
5691;BME280;2870;42.680;23.364;2023-02-26T01:07:22;93930.41;;;14.52;44.95
5691;BME280;2870;42.680;23.364;2023-02-26T01:09:49;93926.81;;;14.52;44.83
5691;BME280;2870;42.680;23.364;2023-02-26T01:12:17;93930.50;;;14.66;44.29
5691;BME280;2870;42.680;23.364;2023-02-26T01:14:44;93921.31;;;14.54;44.61
5691;BME280;2870;42.680;23.364;2023-02-26T01:17:16;93918.25;;;14.50;44.90
5691;BME280;2870;42.680;23.364;2023-02-26T01:19:49;93929.63;;;14.52;44.20
5691;BME280;2870;42.680;23.364;2023-02-26T01:22:21;93902.91;;;14.53;43.90
5691;BME280;2870;42.680;23.364;2023-02-26T01:24:53;93909.91;;;14.64;43.44
5691;BME280;2870;42.680;23.364;2023-02-26T01:27:22;93883.16;;;14.53;43.41
5691;BME280;2870;42.680;23.364;2023-02-26T01:29:49;93895.19;;;14.53;43.89
5691;BME280;2870;42.680;23.364;2023-02-26T01:32:19;93886.56;;;14.40;44.00
5691;BME280;2870;42.680;23.364;2023-02-26T01:34:54;93861.22;;;14.28;43.67
5691;BME280;2870;42.680;23.364;2023-02-26T01:37:26;93872.72;;;14.44;43.08
5691;BME280;2870;42.680;23.364;2023-02-26T01:40:12;93857.00;;;14.64;42.70
5691;BME280;2870;42.680;23.364;2023-02-26T01:42:49;93860.69;;;14.55;42.48
5691;BME280;2870;42.680;23.364;2023-02-26T01:45:20;93856.41;;;14.42;42.65
5691;BME280;2870;42.680;23.364;2023-02-26T01:47:53;93866.84;;;14.51;42.66
5691;BME280;2870;42.680;23.364;2023-02-26T01:50:25;93858.13;;;14.59;42.47
5691;BME280;2870;42.680;23.364;2023-02-26T01:53:19;93856.66;;;14.58;42.88
5691;BME280;2870;42.680;23.364;2023-02-26T01:55:49;93842.63;;;14.72;42.17
5691;BME280;2870;42.680;23.364;2023-02-26T01:58:17;93869.75;;;14.65;42.36
5691;BME280;2870;42.680;23.364;2023-02-26T02:00:45;93862.78;;;14.54;41.50
5691;BME280;2870;42.680;23.364;2023-02-26T02:03:12;93853.16;;;14.71;40.72
5691;BME280;2870;42.680;23.364;2023-02-26T02:05:44;93838.66;;;14.77;40.28
5691;BME280;2870;42.680;23.364;2023-02-26T02:08:13;93840.38;;;14.82;40.32
5691;BME280;2870;42.680;23.364;2023-02-26T02:10:41;93866.78;;;14.75;40.39
5691;BME280;2870;42.680;23.364;2023-02-26T02:13:18;93847.09;;;14.89;39.62
5691;BME280;2870;42.680;23.364;2023-02-26T02:15:55;93855.56;;;14.89;40.04
5691;BME280;2870;42.680;23.364;2023-02-26T02:18:34;93843.53;;;14.88;40.11
5691;BME280;2870;42.680;23.364;2023-02-26T02:21:25;93844.16;;;14.87;40.04
5691;BME280;2870;42.680;23.364;2023-02-26T02:23:56;93850.41;;;14.85;39.83
5691;BME280;2870;42.680;23.364;2023-02-26T02:26:46;93853.16;;;14.71;40.18
5691;BME280;2870;42.680;23.364;2023-02-26T02:29:30;93845.81;;;14.66;40.97
5691;BME280;2870;42.680;23.364;2023-02-26T02:32:05;93859.94;;;14.66;41.34
5691;BME280;2870;42.680;23.364;2023-02-26T02:34:38;93839.47;;;14.54;41.39
5691;BME280;2870;42.680;23.364;2023-02-26T02:37:11;93841.31;;;14.61;40.84
5691;BME280;2870;42.680;23.364;2023-02-26T02:39:45;93825.06;;;14.73;40.46
5691;BME280;2870;42.680;23.364;2023-02-26T02:42:19;93847.47;;;14.83;39.98
5691;BME280;2870;42.680;23.364;2023-02-26T02:44:52;93863.00;;;14.70;40.49
5691;BME280;2870;42.680;23.364;2023-02-26T02:47:24;93853.84;;;14.58;40.24
5691;BME280;2870;42.680;23.364;2023-02-26T02:49:57;93852.59;;;14.61;40.20
5691;BME280;2870;42.680;23.364;2023-02-26T02:52:29;93872.63;;;14.42;40.86
5691;BME280;2870;42.680;23.364;2023-02-26T02:55:02;93886.94;;;14.46;40.70
5691;BME280;2870;42.680;23.364;2023-02-26T02:57:36;93877.53;;;14.53;40.48
5691;BME280;2870;42.680;23.364;2023-02-26T03:00:06;93854.19;;;14.64;39.20
5691;BME280;2870;42.680;23.364;2023-02-26T03:02:42;93847.75;;;14.75;38.87
5691;BME280;2870;42.680;23.364;2023-02-26T03:05:13;93849.13;;;14.63;38.94
5691;BME280;2870;42.680;23.364;2023-02-26T03:07:44;93870.22;;;14.73;38.96
5691;BME280;2870;42.680;23.364;2023-02-26T03:10:13;93876.34;;;14.81;38.90
5691;BME280;2870;42.680;23.364;2023-02-26T03:12:40;93875.38;;;14.77;39.21
5691;BME280;2870;42.680;23.364;2023-02-26T03:15:08;93867.72;;;14.79;39.00
5691;BME280;2870;42.680;23.364;2023-02-26T03:17:45;93857.31;;;14.82;38.52
5691;BME280;2870;42.680;23.364;2023-02-26T03:20:22;93869.97;;;14.81;38.57
5691;BME280;2870;42.680;23.364;2023-02-26T03:23:00;93867.53;;;14.75;38.91
5691;BME280;2870;42.680;23.364;2023-02-26T03:25:34;93865.94;;;14.72;38.84
5691;BME280;2870;42.680;23.364;2023-02-26T03:28:10;93851.84;;;14.61;38.75
5691;BME280;2870;42.680;23.364;2023-02-26T03:30:44;93853.47;;;14.52;39.32
5691;BME280;2870;42.680;23.364;2023-02-26T03:33:18;93844.94;;;14.75;38.70
5691;BME280;2870;42.680;23.364;2023-02-26T03:35:49;93870.97;;;14.62;38.32
5691;BME280;2870;42.680;23.364;2023-02-26T03:38:23;93879.91;;;14.82;38.50
5691;BME280;2870;42.680;23.364;2023-02-26T03:40:56;93858.13;;;14.59;38.38
5691;BME280;2870;42.680;23.364;2023-02-26T03:43:28;93863.72;;;14.71;38.46
5691;BME280;2870;42.680;23.364;2023-02-26T03:45:59;93870.34;;;14.75;37.98
5691;BME280;2870;42.680;23.364;2023-02-26T03:48:30;93858.38;;;14.89;38.20
5691;BME280;2870;42.680;23.364;2023-02-26T03:51:03;93844.94;;;15.01;37.92
5691;BME280;2870;42.680;23.364;2023-02-26T03:53:35;93848.66;;;14.92;37.49
5691;BME280;2870;42.680;23.364;2023-02-26T03:56:06;93855.84;;;14.81;38.05
5691;BME280;2870;42.680;23.364;2023-02-26T03:58:37;93855.78;;;14.93;37.62
5691;BME280;2870;42.680;23.364;2023-02-26T04:01:07;93841.78;;;14.95;37.99
5691;BME280;2870;42.680;23.364;2023-02-26T04:03:40;93839.13;;;14.85;38.17
5691;BME280;2870;42.680;23.364;2023-02-26T04:06:10;93832.75;;;14.84;38.01
5691;BME280;2870;42.680;23.364;2023-02-26T04:08:37;93839.63;;;14.81;38.21
5691;BME280;2870;42.680;23.364;2023-02-26T04:11:06;93861.75;;;14.73;37.94
5691;BME280;2870;42.680;23.364;2023-02-26T04:13:34;93837.69;;;14.72;38.20
5691;BME280;2870;42.680;23.364;2023-02-26T04:16:01;93831.13;;;14.93;37.80
5691;BME280;2870;42.680;23.364;2023-02-26T04:18:28;93838.66;;;14.77;38.18
5691;BME280;2870;42.680;23.364;2023-02-26T04:20:56;93848.25;;;14.72;38.49
5691;BME280;2870;42.680;23.364;2023-02-26T04:23:23;93833.91;;;14.68;39.04
5691;BME280;2870;42.680;23.364;2023-02-26T04:25:49;93824.28;;;14.47;39.02
5691;BME280;2870;42.680;23.364;2023-02-26T04:28:16;93822.03;;;14.46;39.20
5691;BME280;2870;42.680;23.364;2023-02-26T04:30:43;93815.94;;;14.38;39.03
5691;BME280;2870;42.680;23.364;2023-02-26T04:33:10;93818.38;;;14.55;38.78
5691;BME280;2870;42.680;23.364;2023-02-26T04:35:38;93811.50;;;14.58;38.18
5691;BME280;2870;42.680;23.364;2023-02-26T04:38:06;93805.09;;;14.69;37.58
5691;BME280;2870;42.680;23.364;2023-02-26T04:40:33;93788.25;;;14.71;37.94
5691;BME280;2870;42.680;23.364;2023-02-26T04:42:59;93790.16;;;14.80;37.94
5691;BME280;2870;42.680;23.364;2023-02-26T04:45:27;93790.78;;;14.79;37.94
5691;BME280;2870;42.680;23.364;2023-02-26T04:47:54;93785.88;;;14.79;37.57
5691;BME280;2870;42.680;23.364;2023-02-26T04:50:21;93791.03;;;14.83;37.98
5691;BME280;2870;42.680;23.364;2023-02-26T04:52:47;93795.03;;;14.66;38.00
5691;BME280;2870;42.680;23.364;2023-02-26T04:55:16;93784.06;;;14.72;38.12
5691;BME280;2870;42.680;23.364;2023-02-26T04:57:43;93778.66;;;14.76;38.13
5691;BME280;2870;42.680;23.364;2023-02-26T05:00:11;93784.38;;;14.65;38.33
5691;BME280;2870;42.680;23.364;2023-02-26T05:02:39;93806.47;;;14.45;39.07
5691;BME280;2870;42.680;23.364;2023-02-26T05:05:07;93806.63;;;14.47;39.33
5691;BME280;2870;42.680;23.364;2023-02-26T05:07:34;93789.44;;;14.43;39.12
5691;BME280;2870;42.680;23.364;2023-02-26T05:10:00;93795.38;;;14.23;39.90
5691;BME280;2870;42.680;23.364;2023-02-26T05:12:29;93796.88;;;14.01;40.63
5691;BME280;2870;42.680;23.364;2023-02-26T05:14:55;93773.34;;;14.08;40.57
5691;BME280;2870;42.680;23.364;2023-02-26T05:17:22;93774.75;;;14.32;39.77
5691;BME280;2870;42.680;23.364;2023-02-26T05:19:49;93794.56;;;14.09;40.23
5691;BME280;2870;42.680;23.364;2023-02-26T05:22:17;93779.84;;;14.11;40.89
5691;BME280;2870;42.680;23.364;2023-02-26T05:24:43;93772.13;;;14.11;41.33
5691;BME280;2870;42.680;23.364;2023-02-26T05:27:10;93776.56;;;14.02;41.80
5691;BME280;2870;42.680;23.364;2023-02-26T05:29:39;93778.78;;;13.92;41.29
5691;BME280;2870;42.680;23.364;2023-02-26T05:32:09;93780.88;;;13.92;40.96
5691;BME280;2870;42.680;23.364;2023-02-26T05:34:36;93784.63;;;14.08;40.90
5691;BME280;2870;42.680;23.364;2023-02-26T05:37:03;93800.47;;;13.90;41.83
5691;BME280;2870;42.680;23.364;2023-02-26T05:39:30;93783.69;;;13.92;41.34
5691;BME280;2870;42.680;23.364;2023-02-26T05:41:57;93774.63;;;13.82;41.36
5691;BME280;2870;42.680;23.364;2023-02-26T05:44:24;93769.59;;;13.80;41.43
5691;BME280;2870;42.680;23.364;2023-02-26T05:46:52;93791.03;;;13.97;41.20
5691;BME280;2870;42.680;23.364;2023-02-26T05:49:19;93783.94;;;13.72;42.22
5691;BME280;2870;42.680;23.364;2023-02-26T05:51:45;93808.19;;;13.77;41.77
5691;BME280;2870;42.680;23.364;2023-02-26T05:54:12;93790.19;;;13.83;41.39
5691;BME280;2870;42.680;23.364;2023-02-26T05:56:39;93801.59;;;13.85;41.69
5691;BME280;2870;42.680;23.364;2023-02-26T05:59:06;93776.63;;;14.16;38.83
5691;BME280;2870;42.680;23.364;2023-02-26T06:01:32;93797.56;;;14.48;38.75
5691;BME280;2870;42.680;23.364;2023-02-26T06:04:03;93791.19;;;14.36;39.83
5691;BME280;2870;42.680;23.364;2023-02-26T06:06:29;93774.72;;;14.44;38.26
5691;BME280;2870;42.680;23.364;2023-02-26T06:08:57;93804.38;;;14.57;38.35
5691;BME280;2870;42.680;23.364;2023-02-26T06:11:25;93809.75;;;14.65;37.63
5691;BME280;2870;42.680;23.364;2023-02-26T06:13:52;93793.28;;;14.73;37.54
5691;BME280;2870;42.680;23.364;2023-02-26T06:16:19;93793.09;;;15.08;36.48
5691;BME280;2870;42.680;23.364;2023-02-26T06:18:46;93798.63;;;15.06;37.01
5691;BME280;2870;42.680;23.364;2023-02-26T06:21:16;93808.00;;;14.97;37.32
5691;BME280;2870;42.680;23.364;2023-02-26T06:23:43;93820.91;;;15.00;37.34
5691;BME280;2870;42.680;23.364;2023-02-26T06:26:10;93829.94;;;15.10;37.15
5691;BME280;2870;42.680;23.364;2023-02-26T06:28:37;93825.97;;;15.15;37.64
5691;BME280;2870;42.680;23.364;2023-02-26T06:31:04;93810.09;;;15.61;36.17
5691;BME280;2870;42.680;23.364;2023-02-26T06:33:30;93804.88;;;15.69;35.48
5691;BME280;2870;42.680;23.364;2023-02-26T06:35:57;93805.31;;;15.77;35.23
5691;BME280;2870;42.680;23.364;2023-02-26T06:38:26;93830.22;;;15.81;35.04
5691;BME280;2870;42.680;23.364;2023-02-26T06:40:53;93813.38;;;15.97;34.21
5691;BME280;2870;42.680;23.364;2023-02-26T06:43:20;93814.31;;;16.15;33.97
5691;BME280;2870;42.680;23.364;2023-02-26T06:45:47;93811.69;;;16.19;34.05
5691;BME280;2870;42.680;23.364;2023-02-26T06:48:14;93783.81;;;16.27;33.70
5691;BME280;2870;42.680;23.364;2023-02-26T06:50:41;93807.78;;;16.54;33.10
5691;BME280;2870;42.680;23.364;2023-02-26T06:53:07;93822.00;;;16.69;32.60
5691;BME280;2870;42.680;23.364;2023-02-26T06:55:40;93797.66;;;16.78;32.88
5691;BME280;2870;42.680;23.364;2023-02-26T06:58:07;93818.31;;;16.81;32.46
5691;BME280;2870;42.680;23.364;2023-02-26T07:00:34;93812.22;;;16.86;32.33
5691;BME280;2870;42.680;23.364;2023-02-26T07:03:02;93811.59;;;17.33;31.51
5691;BME280;2870;42.680;23.364;2023-02-26T07:05:29;93809.72;;;17.54;31.69
5691;BME280;2870;42.680;23.364;2023-02-26T07:07:56;93791.13;;;17.51;31.17
5691;BME280;2870;42.680;23.364;2023-02-26T07:10:23;93788.22;;;17.48;31.31
5691;BME280;2870;42.680;23.364;2023-02-26T07:12:51;93801.41;;;17.89;31.63
5691;BME280;2870;42.680;23.364;2023-02-26T07:15:18;93780.81;;;18.05;30.29
5691;BME280;2870;42.680;23.364;2023-02-26T07:17:45;93793.25;;;18.13;30.15
5691;BME280;2870;42.680;23.364;2023-02-26T07:20:12;93792.03;;;18.68;30.30
5691;BME280;2870;42.680;23.364;2023-02-26T07:22:39;93813.06;;;18.96;29.43
5691;BME280;2870;42.680;23.364;2023-02-26T07:25:06;93806.00;;;18.79;29.24
5691;BME280;2870;42.680;23.364;2023-02-26T07:27:33;93802.84;;;18.56;29.76
5691;BME280;2870;42.680;23.364;2023-02-26T07:30:03;93797.78;;;18.88;29.19
5691;BME280;2870;42.680;23.364;2023-02-26T07:32:30;93803.81;;;18.78;29.55
5691;BME280;2870;42.680;23.364;2023-02-26T07:34:57;93806.03;;;18.64;29.26
5691;BME280;2870;42.680;23.364;2023-02-26T07:37:24;93811.63;;;18.28;29.95
5691;BME280;2870;42.680;23.364;2023-02-26T07:39:53;93803.22;;;18.48;29.37
5691;BME280;2870;42.680;23.364;2023-02-26T07:42:20;93794.22;;;18.53;29.45
5691;BME280;2870;42.680;23.364;2023-02-26T07:44:47;93809.91;;;19.06;29.16
5691;BME280;2870;42.680;23.364;2023-02-26T07:47:15;93808.13;;;18.30;30.12
5691;BME280;2870;42.680;23.364;2023-02-26T07:49:42;93809.06;;;18.18;29.70
5691;BME280;2870;42.680;23.364;2023-02-26T07:52:09;93799.19;;;18.04;29.68
5691;BME280;2870;42.680;23.364;2023-02-26T07:54:36;93804.06;;;18.50;29.53
5691;BME280;2870;42.680;23.364;2023-02-26T07:57:03;93794.72;;;18.66;29.04
5691;BME280;2870;42.680;23.364;2023-02-26T07:59:30;93791.88;;;18.48;29.60
5691;BME280;2870;42.680;23.364;2023-02-26T08:01:57;93815.50;;;18.52;29.47
5691;BME280;2870;42.680;23.364;2023-02-26T08:04:25;93806.41;;;18.56;29.27
5691;BME280;2870;42.680;23.364;2023-02-26T08:06:52;93819.38;;;18.77;28.66
5691;BME280;2870;42.680;23.364;2023-02-26T08:09:19;93810.84;;;18.43;29.03
5691;BME280;2870;42.680;23.364;2023-02-26T08:11:46;93804.59;;;18.47;28.74
5691;BME280;2870;42.680;23.364;2023-02-26T08:14:14;93822.03;;;18.39;28.87
5691;BME280;2870;42.680;23.364;2023-02-26T08:16:41;93809.88;;;18.54;28.52
5691;BME280;2870;42.680;23.364;2023-02-26T08:19:08;93816.69;;;18.47;28.79
5691;BME280;2870;42.680;23.364;2023-02-26T08:21:36;93830.72;;;18.77;28.46
5691;BME280;2870;42.680;23.364;2023-02-26T08:24:03;93793.44;;;18.51;28.60
5691;BME280;2870;42.680;23.364;2023-02-26T08:26:30;93819.94;;;18.73;28.71
5691;BME280;2870;42.680;23.364;2023-02-26T08:28:56;93834.88;;;18.09;29.01
5691;BME280;2870;42.680;23.364;2023-02-26T08:31:23;93811.69;;;18.64;28.75
5691;BME280;2870;42.680;23.364;2023-02-26T08:33:52;93801.03;;;18.80;28.79
5691;BME280;2870;42.680;23.364;2023-02-26T08:36:19;93825.72;;;18.60;28.44
5691;BME280;2870;42.680;23.364;2023-02-26T08:38:48;93838.38;;;18.72;28.42
5691;BME280;2870;42.680;23.364;2023-02-26T08:41:14;93841.00;;;18.84;28.39
5691;BME280;2870;42.680;23.364;2023-02-26T08:43:42;93845.38;;;19.23;28.43
5691;BME280;2870;42.680;23.364;2023-02-26T08:46:09;93839.44;;;19.17;27.88
5691;BME280;2870;42.680;23.364;2023-02-26T08:48:35;93850.03;;;19.14;28.33
5691;BME280;2870;42.680;23.364;2023-02-26T08:51:02;93844.50;;;19.36;27.52
5691;BME280;2870;42.680;23.364;2023-02-26T08:53:29;93830.34;;;19.56;27.47
5691;BME280;2870;42.680;23.364;2023-02-26T08:55:58;93854.06;;;19.63;27.72
5691;BME280;2870;42.680;23.364;2023-02-26T08:58:25;93844.41;;;19.70;27.41
5691;BME280;2870;42.680;23.364;2023-02-26T09:00:52;93840.34;;;19.03;28.65
5691;BME280;2870;42.680;23.364;2023-02-26T09:03:19;93847.00;;;19.28;27.27
5691;BME280;2870;42.680;23.364;2023-02-26T09:05:45;93842.38;;;19.37;27.40
5691;BME280;2870;42.680;23.364;2023-02-26T09:08:12;93825.56;;;19.98;28.01
5691;BME280;2870;42.680;23.364;2023-02-26T09:10:41;93836.91;;;19.78;27.68
5691;BME280;2870;42.680;23.364;2023-02-26T09:13:09;93835.06;;;20.45;27.99
5691;BME280;2870;42.680;23.364;2023-02-26T09:15:36;93840.84;;;20.67;26.70
5691;BME280;2870;42.680;23.364;2023-02-26T09:18:03;93846.03;;;20.94;25.77
5691;BME280;2870;42.680;23.364;2023-02-26T09:20:30;93828.50;;;20.20;26.16
5691;BME280;2870;42.680;23.364;2023-02-26T09:25:23;93832.25;;;21.08;24.98
5691;BME280;2870;42.680;23.364;2023-02-26T09:27:50;93808.53;;;21.24;24.82
5691;BME280;2870;42.680;23.364;2023-02-26T09:30:18;93808.09;;;21.55;24.75
5691;BME280;2870;42.680;23.364;2023-02-26T09:32:45;93800.47;;;21.86;23.78
5691;BME280;2870;42.680;23.364;2023-02-26T09:35:12;93794.13;;;21.65;24.57
5691;BME280;2870;42.680;23.364;2023-02-26T09:37:39;93815.00;;;21.48;24.74
5691;BME280;2870;42.680;23.364;2023-02-26T09:40:08;93806.81;;;22.08;23.75
5691;BME280;2870;42.680;23.364;2023-02-26T09:42:49;93821.34;;;22.16;23.83
5691;BME280;2870;42.680;23.364;2023-02-26T09:45:26;93828.47;;;22.67;23.50
5691;BME280;2870;42.680;23.364;2023-02-26T09:47:56;93846.19;;;23.44;24.70
5691;BME280;2870;42.680;23.364;2023-02-26T09:50:25;93816.31;;;22.15;23.19
5691;BME280;2870;42.680;23.364;2023-02-26T09:52:56;93812.31;;;23.34;23.33
5691;BME280;2870;42.680;23.364;2023-02-26T09:55:29;93849.47;;;23.92;22.21
5691;BME280;2870;42.680;23.364;2023-02-26T09:57:59;93824.22;;;23.24;22.72
5691;BME280;2870;42.680;23.364;2023-02-26T10:00:34;93813.69;;;21.51;23.74
5691;BME280;2870;42.680;23.364;2023-02-26T10:03:14;93816.34;;;22.95;22.87
5691;BME280;2870;42.680;23.364;2023-02-26T10:05:51;93801.78;;;21.59;23.73
5691;BME280;2870;42.680;23.364;2023-02-26T10:08:28;93792.19;;;21.96;24.25
5691;BME280;2870;42.680;23.364;2023-02-26T10:11:03;93832.72;;;23.20;23.51
5691;BME280;2870;42.680;23.364;2023-02-26T10:13:36;93833.09;;;23.07;23.63
5691;BME280;2870;42.680;23.364;2023-02-26T10:16:14;93825.91;;;23.96;23.69
5691;BME280;2870;42.680;23.364;2023-02-26T10:18:46;93817.34;;;23.98;22.54
5691;BME280;2870;42.680;23.364;2023-02-26T10:21:22;93822.31;;;23.33;23.29
5691;BME280;2870;42.680;23.364;2023-02-26T10:23:54;93841.28;;;23.78;22.11
5691;BME280;2870;42.680;23.364;2023-02-26T10:26:24;93837.06;;;24.48;21.55
5691;BME280;2870;42.680;23.364;2023-02-26T10:28:58;93819.66;;;23.13;22.32
5691;BME280;2870;42.680;23.364;2023-02-26T10:31:32;93813.78;;;23.65;22.48
5691;BME280;2870;42.680;23.364;2023-02-26T10:34:11;93821.34;;;21.68;24.16
5691;BME280;2870;42.680;23.364;2023-02-26T10:36:47;93801.28;;;21.21;24.88
5691;BME280;2870;42.680;23.364;2023-02-26T10:39:27;93815.38;;;22.58;23.44
5691;BME280;2870;42.680;23.364;2023-02-26T10:41:59;93783.78;;;22.26;24.09
5691;BME280;2870;42.680;23.364;2023-02-26T10:44:31;93781.47;;;22.74;23.19
5691;BME280;2870;42.680;23.364;2023-02-26T10:47:07;93750.91;;;21.27;24.55
5691;BME280;2870;42.680;23.364;2023-02-26T10:49:55;93765.22;;;22.01;24.02
5691;BME280;2870;42.680;23.364;2023-02-26T10:52:25;93778.91;;;22.31;24.56
5691;BME280;2870;42.680;23.364;2023-02-26T10:55:06;93774.16;;;21.41;24.53
5691;BME280;2870;42.680;23.364;2023-02-26T10:57:36;93764.84;;;21.89;23.56
5691;BME280;2870;42.680;23.364;2023-02-26T11:00:06;93770.72;;;21.45;23.88
5691;BME280;2870;42.680;23.364;2023-02-26T11:02:40;93761.81;;;21.83;24.35
5691;BME280;2870;42.680;23.364;2023-02-26T11:05:14;93762.84;;;21.93;24.69
5691;BME280;2870;42.680;23.364;2023-02-26T11:07:44;93757.06;;;20.76;24.92
5691;BME280;2870;42.680;23.364;2023-02-26T11:10:15;93779.63;;;21.11;24.77
5691;BME280;2870;42.680;23.364;2023-02-26T11:12:42;93775.22;;;20.64;25.65
5691;BME280;2870;42.680;23.364;2023-02-26T11:15:14;93735.22;;;20.41;26.17
5691;BME280;2870;42.680;23.364;2023-02-26T11:17:42;93757.53;;;20.06;27.41
5691;BME280;2870;42.680;23.364;2023-02-26T11:20:17;93750.91;;;20.20;27.87
5691;BME280;2870;42.680;23.364;2023-02-26T11:22:51;93764.47;;;20.01;26.80
5691;BME280;2870;42.680;23.364;2023-02-26T11:25:23;93758.19;;;19.65;27.38
5691;BME280;2870;42.680;23.364;2023-02-26T11:27:56;93758.72;;;19.42;28.69
5691;BME280;2870;42.680;23.364;2023-02-26T11:30:26;93776.63;;;19.09;27.58
5691;BME280;2870;42.680;23.364;2023-02-26T11:32:57;93773.94;;;19.50;29.50
5691;BME280;2870;42.680;23.364;2023-02-26T11:35:26;93771.19;;;19.70;28.44
5691;BME280;2870;42.680;23.364;2023-02-26T11:37:56;93781.66;;;19.66;27.50
5691;BME280;2870;42.680;23.364;2023-02-26T11:40:34;93778.78;;;19.46;27.43
5691;BME280;2870;42.680;23.364;2023-02-26T11:43:05;93768.97;;;19.13;28.27
5691;BME280;2870;42.680;23.364;2023-02-26T11:45:34;93772.81;;;19.40;27.95
5691;BME280;2870;42.680;23.364;2023-02-26T11:48:05;93784.28;;;19.59;27.98
5691;BME280;2870;42.680;23.364;2023-02-26T11:50:38;93777.50;;;19.31;28.41
5691;BME280;2870;42.680;23.364;2023-02-26T11:53:14;93772.09;;;19.39;28.72
5691;BME280;2870;42.680;23.364;2023-02-26T11:55:44;93784.78;;;19.36;27.85
5691;BME280;2870;42.680;23.364;2023-02-26T11:58:17;93796.75;;;19.15;27.39
5691;BME280;2870;42.680;23.364;2023-02-26T12:00:45;93802.88;;;19.45;27.78
5691;BME280;2870;42.680;23.364;2023-02-26T12:03:20;93802.09;;;19.60;26.93
5691;BME280;2870;42.680;23.364;2023-02-26T12:05:47;93818.38;;;19.77;26.98
5691;BME280;2870;42.680;23.364;2023-02-26T12:08:21;93847.66;;;19.80;27.02
5691;BME280;2870;42.680;23.364;2023-02-26T12:11:02;93820.53;;;19.41;27.97
5691;BME280;2870;42.680;23.364;2023-02-26T12:13:35;93827.84;;;19.46;28.74
5691;BME280;2870;42.680;23.364;2023-02-26T12:16:14;93826.47;;;19.29;28.77
5691;BME280;2870;42.680;23.364;2023-02-26T12:18:55;93836.53;;;19.15;30.19
5691;BME280;2870;42.680;23.364;2023-02-26T12:21:44;93837.84;;;19.65;29.38
5691;BME280;2870;42.680;23.364;2023-02-26T12:24:40;93837.72;;;19.45;30.58
5691;BME280;2870;42.680;23.364;2023-02-26T12:27:18;93824.50;;;19.16;30.80
5691;BME280;2870;42.680;23.364;2023-02-26T12:30:00;93846.50;;;18.98;30.44
5691;BME280;2870;42.680;23.364;2023-02-26T12:32:45;93843.94;;;19.22;31.04
5691;BME280;2870;42.680;23.364;2023-02-26T12:35:37;93845.06;;;19.15;30.87
5691;BME280;2870;42.680;23.364;2023-02-26T12:38:16;93828.47;;;18.73;33.08
5691;BME280;2870;42.680;23.364;2023-02-26T12:41:09;93834.66;;;19.03;32.19
5691;BME280;2870;42.680;23.364;2023-02-26T12:43:44;93860.31;;;19.05;32.79
5691;BME280;2870;42.680;23.364;2023-02-26T12:46:21;93839.63;;;19.39;32.96
5691;BME280;2870;42.680;23.364;2023-02-26T12:49:18;93838.72;;;19.52;32.74
5691;BME280;2870;42.680;23.364;2023-02-26T12:52:02;93852.69;;;19.28;33.39
5691;BME280;2870;42.680;23.364;2023-02-26T12:54:45;93842.38;;;19.54;32.76
5691;BME280;2870;42.680;23.364;2023-02-26T12:57:39;93842.97;;;19.69;32.48
5691;BME280;2870;42.680;23.364;2023-02-26T13:00:42;93841.91;;;19.42;32.40
5691;BME280;2870;42.680;23.364;2023-02-26T13:03:34;93827.28;;;19.14;32.56
5691;BME280;2870;42.680;23.364;2023-02-26T13:06:38;93837.50;;;19.39;30.75
5691;BME280;2870;42.680;23.364;2023-02-26T13:09:14;93837.84;;;19.47;30.61
5691;BME280;2870;42.680;23.364;2023-02-26T13:11:55;93836.59;;;19.52;30.77
5691;BME280;2870;42.680;23.364;2023-02-26T13:14:34;93837.56;;;19.05;30.71
5691;BME280;2870;42.680;23.364;2023-02-26T13:17:07;93823.13;;;18.99;34.40
5691;BME280;2870;42.680;23.364;2023-02-26T13:19:41;93820.53;;;18.88;32.07
5691;BME280;2870;42.680;23.364;2023-02-26T13:22:16;93849.28;;;18.62;30.75
5691;BME280;2870;42.680;23.364;2023-02-26T13:24:50;93866.63;;;18.86;29.93
5691;BME280;2870;42.680;23.364;2023-02-26T13:27:23;93850.56;;;19.11;30.74
5691;BME280;2870;42.680;23.364;2023-02-26T13:29:59;93856.69;;;19.21;30.63
5691;BME280;2870;42.680;23.364;2023-02-26T13:32:31;93846.19;;;19.43;30.06
5691;BME280;2870;42.680;23.364;2023-02-26T13:35:03;93832.94;;;19.50;30.32